sensor_id;sensor_type;location;lat;lon;timestamp;P1;durP1;ratioP1;P2;durP2;ratioP2
7169;SDS011;3626;42.656;23.312;2022-09-14T00:00:04;8.18;;;6.10;;
7169;SDS011;3626;42.656;23.312;2022-09-14T00:00:12;8.72;;;6.13;;
7169;SDS011;3626;42.656;23.312;2022-09-14T00:00:18;8.35;;;6.10;;
7169;SDS011;3626;42.656;23.312;2022-09-14T00:00:25;8.52;;;6.16;;
7169;SDS011;3626;42.656;23.312;2022-09-14T00:00:30;8.60;;;6.20;;
7169;SDS011;3626;42.656;23.312;2022-09-14T00:00:38;8.95;;;6.22;;
7169;SDS011;3626;42.656;23.312;2022-09-14T00:00:46;9.67;;;6.20;;
7169;SDS011;3626;42.656;23.312;2022-09-14T00:00:52;9.70;;;6.00;;
7169;SDS011;3626;42.656;23.312;2022-09-14T00:00:57;9.50;;;5.90;;
7169;SDS011;3626;42.656;23.312;2022-09-14T00:01:06;9.60;;;5.80;;
7169;SDS011;3626;42.656;23.312;2022-09-14T00:01:13;9.34;;;5.76;;
7169;SDS011;3626;42.656;23.312;2022-09-14T00:01:21;9.10;;;5.70;;
7169;SDS011;3626;42.656;23.312;2022-09-14T00:01:30;8.70;;;5.60;;
7169;SDS011;3626;42.656;23.312;2022-09-14T00:01:39;8.51;;;5.70;;
7169;SDS011;3626;42.656;23.312;2022-09-14T00:01:48;8.50;;;5.88;;
7169;SDS011;3626;42.656;23.312;2022-09-14T00:01:54;9.47;;;6.00;;
7169;SDS011;3626;42.656;23.312;2022-09-14T00:02:01;11.45;;;6.18;;
7169;SDS011;3626;42.656;23.312;2022-09-14T00:02:07;12.36;;;6.36;;
7169;SDS011;3626;42.656;23.312;2022-09-14T00:02:13;11.98;;;6.22;;
7169;SDS011;3626;42.656;23.312;2022-09-14T00:02:19;11.90;;;6.20;;
7169;SDS011;3626;42.656;23.312;2022-09-14T00:02:24;11.90;;;6.17;;
7169;SDS011;3626;42.656;23.312;2022-09-14T00:02:30;11.90;;;6.20;;
7169;SDS011;3626;42.656;23.312;2022-09-14T00:02:36;11.77;;;6.07;;
7169;SDS011;3626;42.656;23.312;2022-09-14T00:02:41;11.75;;;6.07;;
7169;SDS011;3626;42.656;23.312;2022-09-14T00:02:48;10.93;;;6.20;;
7169;SDS011;3626;42.656;23.312;2022-09-14T00:02:54;10.40;;;6.20;;
7169;SDS011;3626;42.656;23.312;2022-09-14T00:03:00;8.40;;;6.13;;
7169;SDS011;3626;42.656;23.312;2022-09-14T00:03:05;8.23;;;6.10;;
7169;SDS011;3626;42.656;23.312;2022-09-14T00:03:11;8.93;;;6.20;;
7169;SDS011;3626;42.656;23.312;2022-09-14T00:03:17;9.17;;;6.30;;
7169;SDS011;3626;42.656;23.312;2022-09-14T00:03:24;9.30;;;6.30;;
7169;SDS011;3626;42.656;23.312;2022-09-14T00:03:30;9.43;;;6.30;;
7169;SDS011;3626;42.656;23.312;2022-09-14T00:03:36;9.65;;;6.40;;
7169;SDS011;3626;42.656;23.312;2022-09-14T00:03:42;9.70;;;6.40;;
7169;SDS011;3626;42.656;23.312;2022-09-14T00:03:50;9.80;;;6.40;;
7169;SDS011;3626;42.656;23.312;2022-09-14T00:03:57;10.13;;;6.43;;
7169;SDS011;3626;42.656;23.312;2022-09-14T00:04:05;10.42;;;6.48;;
7169;SDS011;3626;42.656;23.312;2022-09-14T00:04:15;8.80;;;6.30;;
7169;SDS011;3626;42.656;23.312;2022-09-14T00:04:22;8.70;;;6.48;;
7169;SDS011;3626;42.656;23.312;2022-09-14T00:04:28;8.52;;;6.50;;
7169;SDS011;3626;42.656;23.312;2022-09-14T00:04:34;8.15;;;6.40;;
7169;SDS011;3626;42.656;23.312;2022-09-14T00:04:41;8.10;;;6.38;;
7169;SDS011;3626;42.656;23.312;2022-09-14T00:04:46;8.50;;;6.47;;
7169;SDS011;3626;42.656;23.312;2022-09-14T00:04:52;8.40;;;6.50;;
7169;SDS011;3626;42.656;23.312;2022-09-14T00:04:58;7.82;;;6.30;;
7169;SDS011;3626;42.656;23.312;2022-09-14T00:05:04;7.75;;;6.35;;
7169;SDS011;3626;42.656;23.312;2022-09-14T00:05:10;8.10;;;6.50;;
7169;SDS011;3626;42.656;23.312;2022-09-14T00:05:16;7.93;;;6.38;;
7169;SDS011;3626;42.656;23.312;2022-09-14T00:05:22;7.78;;;6.13;;
7169;SDS011;3626;42.656;23.312;2022-09-14T00:05:28;8.00;;;6.10;;
7169;SDS011;3626;42.656;23.312;2022-09-14T00:05:33;8.35;;;6.10;;
7169;SDS011;3626;42.656;23.312;2022-09-14T00:05:40;8.30;;;6.07;;
7169;SDS011;3626;42.656;23.312;2022-09-14T00:05:45;8.03;;;5.93;;
7169;SDS011;3626;42.656;23.312;2022-09-14T00:05:51;8.40;;;5.80;;
7169;SDS011;3626;42.656;23.312;2022-09-14T00:06:01;8.60;;;5.80;;
7169;SDS011;3626;42.656;23.312;2022-09-14T00:06:08;8.69;;;5.72;;
7169;SDS011;3626;42.656;23.312;2022-09-14T00:06:17;8.44;;;5.64;;
7169;SDS011;3626;42.656;23.312;2022-09-14T00:06:23;8.52;;;5.70;;
7169;SDS011;3626;42.656;23.312;2022-09-14T00:06:29;8.50;;;5.73;;
7169;SDS011;3626;42.656;23.312;2022-09-14T00:06:36;8.54;;;5.72;;
7169;SDS011;3626;42.656;23.312;2022-09-14T00:06:43;8.13;;;5.50;;
7169;SDS011;3626;42.656;23.312;2022-09-14T00:06:49;7.83;;;5.70;;
7169;SDS011;3626;42.656;23.312;2022-09-14T00:06:55;7.50;;;5.70;;
7169;SDS011;3626;42.656;23.312;2022-09-14T00:07:01;7.60;;;5.73;;
7169;SDS011;3626;42.656;23.312;2022-09-14T00:07:07;7.60;;;5.90;;
7169;SDS011;3626;42.656;23.312;2022-09-14T00:07:13;7.82;;;6.05;;
7169;SDS011;3626;42.656;23.312;2022-09-14T00:07:19;7.90;;;6.00;;
7169;SDS011;3626;42.656;23.312;2022-09-14T00:07:24;8.15;;;6.10;;
7169;SDS011;3626;42.656;23.312;2022-09-14T00:07:30;7.87;;;6.03;;
7169;SDS011;3626;42.656;23.312;2022-09-14T00:07:36;7.97;;;6.10;;
7169;SDS011;3626;42.656;23.312;2022-09-14T00:07:43;8.87;;;6.30;;
7169;SDS011;3626;42.656;23.312;2022-09-14T00:07:48;8.80;;;6.20;;
7169;SDS011;3626;42.656;23.312;2022-09-14T00:07:54;8.95;;;6.38;;
7169;SDS011;3626;42.656;23.312;2022-09-14T00:08:00;9.20;;;6.43;;
7169;SDS011;3626;42.656;23.312;2022-09-14T00:08:07;9.20;;;6.34;;
7169;SDS011;3626;42.656;23.312;2022-09-14T00:08:13;9.13;;;6.30;;
7169;SDS011;3626;42.656;23.312;2022-09-14T00:08:19;9.25;;;6.28;;
7169;SDS011;3626;42.656;23.312;2022-09-14T00:08:25;9.23;;;6.30;;
7169;SDS011;3626;42.656;23.312;2022-09-14T00:08:30;9.32;;;6.47;;
7169;SDS011;3626;42.656;23.312;2022-09-14T00:08:37;9.25;;;6.60;;
7169;SDS011;3626;42.656;23.312;2022-09-14T00:08:43;10.07;;;6.50;;
7169;SDS011;3626;42.656;23.312;2022-09-14T00:08:49;10.20;;;6.47;;
7169;SDS011;3626;42.656;23.312;2022-09-14T00:08:56;9.90;;;6.40;;
7169;SDS011;3626;42.656;23.312;2022-09-14T00:09:05;9.50;;;6.33;;
7169;SDS011;3626;42.656;23.312;2022-09-14T00:09:12;9.60;;;6.30;;
7169;SDS011;3626;42.656;23.312;2022-09-14T00:09:21;9.77;;;6.50;;
7169;SDS011;3626;42.656;23.312;2022-09-14T00:09:28;9.90;;;6.47;;
7169;SDS011;3626;42.656;23.312;2022-09-14T00:09:34;9.88;;;6.28;;
7169;SDS011;3626;42.656;23.312;2022-09-14T00:09:39;9.50;;;6.15;;
7169;SDS011;3626;42.656;23.312;2022-09-14T00:09:45;8.35;;;6.22;;
7169;SDS011;3626;42.656;23.312;2022-09-14T00:09:53;8.40;;;6.30;;
7169;SDS011;3626;42.656;23.312;2022-09-14T00:09:58;8.40;;;6.25;;
7169;SDS011;3626;42.656;23.312;2022-09-14T00:10:05;9.10;;;6.55;;
7169;SDS011;3626;42.656;23.312;2022-09-14T00:10:11;9.27;;;6.60;;
7169;SDS011;3626;42.656;23.312;2022-09-14T00:10:17;9.05;;;6.53;;
7169;SDS011;3626;42.656;23.312;2022-09-14T00:10:22;8.75;;;6.43;;
7169;SDS011;3626;42.656;23.312;2022-09-14T00:10:28;8.57;;;6.40;;
7169;SDS011;3626;42.656;23.312;2022-09-14T00:10:36;8.77;;;6.57;;
7169;SDS011;3626;42.656;23.312;2022-09-14T00:10:44;8.80;;;6.56;;
7169;SDS011;3626;42.656;23.312;2022-09-14T00:10:50;8.63;;;6.50;;
7169;SDS011;3626;42.656;23.312;2022-09-14T00:10:56;8.70;;;6.60;;
7169;SDS011;3626;42.656;23.312;2022-09-14T00:11:03;8.38;;;6.50;;
7169;SDS011;3626;42.656;23.312;2022-09-14T00:11:11;7.77;;;6.33;;
7169;SDS011;3626;42.656;23.312;2022-09-14T00:11:18;7.68;;;6.30;;
7169;SDS011;3626;42.656;23.312;2022-09-14T00:11:26;7.97;;;6.40;;
7169;SDS011;3626;42.656;23.312;2022-09-14T00:11:34;9.67;;;6.27;;
7169;SDS011;3626;42.656;23.312;2022-09-14T00:11:41;10.50;;;6.30;;
7169;SDS011;3626;42.656;23.312;2022-09-14T00:11:47;10.38;;;6.40;;
7169;SDS011;3626;42.656;23.312;2022-09-14T00:11:53;10.10;;;6.22;;
7169;SDS011;3626;42.656;23.312;2022-09-14T00:11:59;9.87;;;6.10;;
7169;SDS011;3626;42.656;23.312;2022-09-14T00:12:05;9.88;;;6.03;;
7169;SDS011;3626;42.656;23.312;2022-09-14T00:12:11;9.93;;;6.00;;
7169;SDS011;3626;42.656;23.312;2022-09-14T00:12:17;10.30;;;5.97;;
7169;SDS011;3626;42.656;23.312;2022-09-14T00:12:23;10.60;;;5.96;;
7169;SDS011;3626;42.656;23.312;2022-09-14T00:12:30;9.60;;;6.12;;
7169;SDS011;3626;42.656;23.312;2022-09-14T00:12:36;8.07;;;6.03;;
7169;SDS011;3626;42.656;23.312;2022-09-14T00:12:42;8.30;;;6.00;;
7169;SDS011;3626;42.656;23.312;2022-09-14T00:12:47;8.40;;;5.95;;
7169;SDS011;3626;42.656;23.312;2022-09-14T00:12:53;8.33;;;5.80;;
7169;SDS011;3626;42.656;23.312;2022-09-14T00:12:59;8.32;;;5.75;;
7169;SDS011;3626;42.656;23.312;2022-09-14T00:13:04;8.80;;;5.75;;
7169;SDS011;3626;42.656;23.312;2022-09-14T00:13:10;11.60;;;6.07;;
7169;SDS011;3626;42.656;23.312;2022-09-14T00:13:17;11.57;;;6.10;;
7169;SDS011;3626;42.656;23.312;2022-09-14T00:13:23;11.53;;;6.17;;
7169;SDS011;3626;42.656;23.312;2022-09-14T00:13:29;11.63;;;6.20;;
7169;SDS011;3626;42.656;23.312;2022-09-14T00:13:35;11.67;;;6.20;;
7169;SDS011;3626;42.656;23.312;2022-09-14T00:13:41;11.27;;;6.10;;
7169;SDS011;3626;42.656;23.312;2022-09-14T00:13:48;11.73;;;6.30;;
7169;SDS011;3626;42.656;23.312;2022-09-14T00:13:55;13.18;;;6.50;;
7169;SDS011;3626;42.656;23.312;2022-09-14T00:14:03;13.20;;;6.50;;
7169;SDS011;3626;42.656;23.312;2022-09-14T00:14:10;10.68;;;6.40;;
7169;SDS011;3626;42.656;23.312;2022-09-14T00:14:15;10.13;;;6.30;;
7169;SDS011;3626;42.656;23.312;2022-09-14T00:14:22;10.02;;;6.22;;
7169;SDS011;3626;42.656;23.312;2022-09-14T00:14:28;10.05;;;6.05;;
7169;SDS011;3626;42.656;23.312;2022-09-14T00:14:34;10.10;;;6.10;;
7169;SDS011;3626;42.656;23.312;2022-09-14T00:14:40;10.18;;;6.20;;
7169;SDS011;3626;42.656;23.312;2022-09-14T00:14:46;10.23;;;6.40;;
7169;SDS011;3626;42.656;23.312;2022-09-14T00:14:52;9.40;;;6.30;;
7169;SDS011;3626;42.656;23.312;2022-09-14T00:14:57;8.82;;;6.25;;
7169;SDS011;3626;42.656;23.312;2022-09-14T00:15:03;9.23;;;6.30;;
7169;SDS011;3626;42.656;23.312;2022-09-14T00:15:11;9.02;;;6.13;;
7169;SDS011;3626;42.656;23.312;2022-09-14T00:15:17;8.90;;;6.27;;
7169;SDS011;3626;42.656;23.312;2022-09-14T00:15:23;8.52;;;6.18;;
7169;SDS011;3626;42.656;23.312;2022-09-14T00:15:29;7.97;;;6.20;;
7169;SDS011;3626;42.656;23.312;2022-09-14T00:15:35;8.32;;;6.00;;
7169;SDS011;3626;42.656;23.312;2022-09-14T00:15:42;9.73;;;6.00;;
7169;SDS011;3626;42.656;23.312;2022-09-14T00:15:49;9.87;;;5.90;;
7169;SDS011;3626;42.656;23.312;2022-09-14T00:15:56;9.70;;;5.93;;
7169;SDS011;3626;42.656;23.312;2022-09-14T00:16:09;9.24;;;5.80;;
7169;SDS011;3626;42.656;23.312;2022-09-14T00:16:18;8.68;;;5.57;;
7169;SDS011;3626;42.656;23.312;2022-09-14T00:16:25;8.92;;;5.76;;
7169;SDS011;3626;42.656;23.312;2022-09-14T00:16:34;9.10;;;5.82;;
7169;SDS011;3626;42.656;23.312;2022-09-14T00:16:41;8.80;;;5.80;;
7169;SDS011;3626;42.656;23.312;2022-09-14T00:16:47;8.83;;;5.83;;
7169;SDS011;3626;42.656;23.312;2022-09-14T00:16:53;9.00;;;5.80;;
7169;SDS011;3626;42.656;23.312;2022-09-14T00:16:58;9.05;;;5.75;;
7169;SDS011;3626;42.656;23.312;2022-09-14T00:17:06;9.47;;;5.87;;
7169;SDS011;3626;42.656;23.312;2022-09-14T00:17:12;9.63;;;5.90;;
7169;SDS011;3626;42.656;23.312;2022-09-14T00:17:18;9.77;;;5.83;;
7169;SDS011;3626;42.656;23.312;2022-09-14T00:17:23;9.95;;;5.90;;
7169;SDS011;3626;42.656;23.312;2022-09-14T00:17:29;9.88;;;5.82;;
7169;SDS011;3626;42.656;23.312;2022-09-14T00:17:35;9.43;;;5.70;;
7169;SDS011;3626;42.656;23.312;2022-09-14T00:17:41;8.80;;;5.73;;
7169;SDS011;3626;42.656;23.312;2022-09-14T00:17:46;8.18;;;5.75;;
7169;SDS011;3626;42.656;23.312;2022-09-14T00:17:52;8.20;;;5.70;;
7169;SDS011;3626;42.656;23.312;2022-09-14T00:17:58;9.27;;;5.80;;
7169;SDS011;3626;42.656;23.312;2022-09-14T00:18:04;9.40;;;5.97;;
7169;SDS011;3626;42.656;23.312;2022-09-14T00:18:11;10.32;;;6.08;;
7169;SDS011;3626;42.656;23.312;2022-09-14T00:18:17;10.60;;;6.20;;
7169;SDS011;3626;42.656;23.312;2022-09-14T00:18:22;10.65;;;6.30;;
7169;SDS011;3626;42.656;23.312;2022-09-14T00:18:29;10.85;;;6.38;;
7169;SDS011;3626;42.656;23.312;2022-09-14T00:18:35;10.80;;;6.67;;
7169;SDS011;3626;42.656;23.312;2022-09-14T00:18:41;11.10;;;6.73;;
7169;SDS011;3626;42.656;23.312;2022-09-14T00:18:49;11.05;;;6.60;;
7169;SDS011;3626;42.656;23.312;2022-09-14T00:18:56;10.46;;;6.69;;
7169;SDS011;3626;42.656;23.312;2022-09-14T00:19:06;10.20;;;6.80;;
7169;SDS011;3626;42.656;23.312;2022-09-14T00:19:15;9.63;;;6.90;;
7169;SDS011;3626;42.656;23.312;2022-09-14T00:19:22;9.96;;;7.06;;
7169;SDS011;3626;42.656;23.312;2022-09-14T00:19:29;10.14;;;7.02;;
7169;SDS011;3626;42.656;23.312;2022-09-14T00:19:35;10.40;;;6.90;;
7169;SDS011;3626;42.656;23.312;2022-09-14T00:19:41;10.30;;;6.93;;
7169;SDS011;3626;42.656;23.312;2022-09-14T00:19:47;10.30;;;7.13;;
7169;SDS011;3626;42.656;23.312;2022-09-14T00:19:53;10.73;;;7.33;;
7169;SDS011;3626;42.656;23.312;2022-09-14T00:19:59;11.10;;;7.50;;
7169;SDS011;3626;42.656;23.312;2022-09-14T00:20:06;10.53;;;7.57;;
7169;SDS011;3626;42.656;23.312;2022-09-14T00:20:12;10.73;;;7.70;;
7169;SDS011;3626;42.656;23.312;2022-09-14T00:20:18;10.68;;;7.70;;
7169;SDS011;3626;42.656;23.312;2022-09-14T00:20:24;10.43;;;7.60;;
7169;SDS011;3626;42.656;23.312;2022-09-14T00:20:30;10.10;;;7.68;;
7169;SDS011;3626;42.656;23.312;2022-09-14T00:20:37;9.70;;;7.68;;
7169;SDS011;3626;42.656;23.312;2022-09-14T00:20:43;9.55;;;7.60;;
7169;SDS011;3626;42.656;23.312;2022-09-14T00:20:49;9.43;;;7.27;;
7169;SDS011;3626;42.656;23.312;2022-09-14T00:20:57;8.93;;;7.00;;
7169;SDS011;3626;42.656;23.312;2022-09-14T00:21:05;8.33;;;6.53;;
7169;SDS011;3626;42.656;23.312;2022-09-14T00:21:12;7.93;;;6.15;;
7169;SDS011;3626;42.656;23.312;2022-09-14T00:21:17;7.93;;;5.80;;
7169;SDS011;3626;42.656;23.312;2022-09-14T00:21:23;8.60;;;5.90;;
7169;SDS011;3626;42.656;23.312;2022-09-14T00:21:29;8.65;;;5.90;;
7169;SDS011;3626;42.656;23.312;2022-09-14T00:21:36;8.60;;;5.80;;
7169;SDS011;3626;42.656;23.312;2022-09-14T00:21:43;8.60;;;5.73;;
7169;SDS011;3626;42.656;23.312;2022-09-14T00:21:49;8.77;;;5.77;;
7169;SDS011;3626;42.656;23.312;2022-09-14T00:21:57;8.85;;;6.00;;
7169;SDS011;3626;42.656;23.312;2022-09-14T00:22:03;9.42;;;6.34;;
7169;SDS011;3626;42.656;23.312;2022-09-14T00:22:10;9.56;;;6.40;;
7169;SDS011;3626;42.656;23.312;2022-09-14T00:22:17;8.93;;;6.50;;
7169;SDS011;3626;42.656;23.312;2022-09-14T00:22:23;8.30;;;6.37;;
7169;SDS011;3626;42.656;23.312;2022-09-14T00:22:29;8.60;;;6.32;;
7169;SDS011;3626;42.656;23.312;2022-09-14T00:22:35;8.90;;;6.28;;
7169;SDS011;3626;42.656;23.312;2022-09-14T00:22:41;8.85;;;6.28;;
7169;SDS011;3626;42.656;23.312;2022-09-14T00:22:46;8.83;;;6.40;;
7169;SDS011;3626;42.656;23.312;2022-09-14T00:22:52;8.60;;;6.25;;
7169;SDS011;3626;42.656;23.312;2022-09-14T00:22:58;8.55;;;6.13;;
7169;SDS011;3626;42.656;23.312;2022-09-14T00:23:04;8.18;;;5.95;;
7169;SDS011;3626;42.656;23.312;2022-09-14T00:23:10;8.23;;;5.80;;
7169;SDS011;3626;42.656;23.312;2022-09-14T00:23:15;8.43;;;5.80;;
7169;SDS011;3626;42.656;23.312;2022-09-14T00:23:21;8.68;;;5.95;;
7169;SDS011;3626;42.656;23.312;2022-09-14T00:23:27;8.70;;;5.95;;
7169;SDS011;3626;42.656;23.312;2022-09-14T00:23:33;8.97;;;6.00;;
7169;SDS011;3626;42.656;23.312;2022-09-14T00:23:41;9.38;;;6.10;;
7169;SDS011;3626;42.656;23.312;2022-09-14T00:23:47;9.25;;;6.20;;
7169;SDS011;3626;42.656;23.312;2022-09-14T00:23:53;9.50;;;6.30;;
7169;SDS011;3626;42.656;23.312;2022-09-14T00:23:59;9.75;;;6.47;;
7169;SDS011;3626;42.656;23.312;2022-09-14T00:24:05;10.20;;;6.75;;
7169;SDS011;3626;42.656;23.312;2022-09-14T00:24:11;10.50;;;7.05;;
7169;SDS011;3626;42.656;23.312;2022-09-14T00:24:17;10.45;;;7.13;;
7169;SDS011;3626;42.656;23.312;2022-09-14T00:24:23;12.32;;;7.20;;
7169;SDS011;3626;42.656;23.312;2022-09-14T00:24:30;12.80;;;7.30;;
7169;SDS011;3626;42.656;23.312;2022-09-14T00:24:36;12.30;;;7.47;;
7169;SDS011;3626;42.656;23.312;2022-09-14T00:24:42;12.32;;;7.40;;
7169;SDS011;3626;42.656;23.312;2022-09-14T00:24:48;12.43;;;7.40;;
7169;SDS011;3626;42.656;23.312;2022-09-14T00:24:54;12.17;;;7.40;;
7169;SDS011;3626;42.656;23.312;2022-09-14T00:25:00;12.40;;;7.53;;
7169;SDS011;3626;42.656;23.312;2022-09-14T00:25:06;15.70;;;7.68;;
7169;SDS011;3626;42.656;23.312;2022-09-14T00:25:12;16.43;;;7.50;;
7169;SDS011;3626;42.656;23.312;2022-09-14T00:25:19;17.23;;;7.57;;
7169;SDS011;3626;42.656;23.312;2022-09-14T00:25:24;15.17;;;7.50;;
7169;SDS011;3626;42.656;23.312;2022-09-14T00:25:31;15.15;;;7.50;;
7169;SDS011;3626;42.656;23.312;2022-09-14T00:25:36;15.13;;;7.55;;
7169;SDS011;3626;42.656;23.312;2022-09-14T00:25:42;15.07;;;7.57;;
7169;SDS011;3626;42.656;23.312;2022-09-14T00:25:48;15.10;;;7.65;;
7169;SDS011;3626;42.656;23.312;2022-09-14T00:25:53;15.20;;;7.53;;
7169;SDS011;3626;42.656;23.312;2022-09-14T00:26:01;15.20;;;7.50;;
7169;SDS011;3626;42.656;23.312;2022-09-14T00:26:08;11.71;;;7.33;;
7169;SDS011;3626;42.656;23.312;2022-09-14T00:26:16;10.90;;;7.40;;
7169;SDS011;3626;42.656;23.312;2022-09-14T00:26:24;10.50;;;7.73;;
7169;SDS011;3626;42.656;23.312;2022-09-14T00:26:30;10.67;;;8.03;;
7169;SDS011;3626;42.656;23.312;2022-09-14T00:26:36;10.75;;;8.00;;
7169;SDS011;3626;42.656;23.312;2022-09-14T00:26:43;10.90;;;8.00;;
7169;SDS011;3626;42.656;23.312;2022-09-14T00:26:48;11.00;;;8.00;;
7169;SDS011;3626;42.656;23.312;2022-09-14T00:26:54;11.00;;;8.00;;
7169;SDS011;3626;42.656;23.312;2022-09-14T00:27:00;11.60;;;8.10;;
7169;SDS011;3626;42.656;23.312;2022-09-14T00:27:06;11.33;;;7.87;;
7169;SDS011;3626;42.656;23.312;2022-09-14T00:27:12;11.50;;;7.70;;
7169;SDS011;3626;42.656;23.312;2022-09-14T00:27:18;11.60;;;7.60;;
7169;SDS011;3626;42.656;23.312;2022-09-14T00:27:23;11.10;;;7.22;;
7169;SDS011;3626;42.656;23.312;2022-09-14T00:27:29;10.77;;;6.90;;
7169;SDS011;3626;42.656;23.312;2022-09-14T00:27:35;11.45;;;6.60;;
7169;SDS011;3626;42.656;23.312;2022-09-14T00:27:41;11.88;;;6.65;;
7169;SDS011;3626;42.656;23.312;2022-09-14T00:27:46;12.10;;;6.70;;
7169;SDS011;3626;42.656;23.312;2022-09-14T00:27:52;12.10;;;6.70;;
7169;SDS011;3626;42.656;23.312;2022-09-14T00:27:58;11.77;;;6.63;;
7169;SDS011;3626;42.656;23.312;2022-09-14T00:28:05;11.52;;;6.78;;
7169;SDS011;3626;42.656;23.312;2022-09-14T00:28:10;11.53;;;6.90;;
7169;SDS011;3626;42.656;23.312;2022-09-14T00:28:16;11.18;;;6.90;;
7169;SDS011;3626;42.656;23.312;2022-09-14T00:28:22;11.18;;;7.10;;
7169;SDS011;3626;42.656;23.312;2022-09-14T00:28:27;11.30;;;7.28;;
7169;SDS011;3626;42.656;23.312;2022-09-14T00:28:35;10.73;;;7.57;;
7169;SDS011;3626;42.656;23.312;2022-09-14T00:28:43;10.09;;;7.63;;
7169;SDS011;3626;42.656;23.312;2022-09-14T00:28:50;10.10;;;7.58;;
7169;SDS011;3626;42.656;23.312;2022-09-14T00:28:58;10.40;;;7.75;;
7169;SDS011;3626;42.656;23.312;2022-09-14T00:29:09;10.40;;;7.72;;
7169;SDS011;3626;42.656;23.312;2022-09-14T00:29:14;10.82;;;7.85;;
7169;SDS011;3626;42.656;23.312;2022-09-14T00:29:21;11.10;;;7.93;;
7169;SDS011;3626;42.656;23.312;2022-09-14T00:29:28;12.60;;;7.90;;
7169;SDS011;3626;42.656;23.312;2022-09-14T00:29:34;13.10;;;7.90;;
7169;SDS011;3626;42.656;23.312;2022-09-14T00:29:40;13.27;;;7.90;;
7169;SDS011;3626;42.656;23.312;2022-09-14T00:29:46;13.35;;;7.97;;
7169;SDS011;3626;42.656;23.312;2022-09-14T00:29:52;13.60;;;8.20;;
7169;SDS011;3626;42.656;23.312;2022-09-14T00:29:58;13.95;;;8.55;;
7169;SDS011;3626;42.656;23.312;2022-09-14T00:30:04;14.23;;;8.63;;
7169;SDS011;3626;42.656;23.312;2022-09-14T00:30:11;14.22;;;9.00;;
7169;SDS011;3626;42.656;23.312;2022-09-14T00:30:17;14.80;;;9.35;;
7169;SDS011;3626;42.656;23.312;2022-09-14T00:30:23;14.43;;;9.65;;
7169;SDS011;3626;42.656;23.312;2022-09-14T00:30:29;13.65;;;9.70;;
7169;SDS011;3626;42.656;23.312;2022-09-14T00:30:39;13.00;;;9.57;;
7169;SDS011;3626;42.656;23.312;2022-09-14T00:30:45;13.40;;;9.77;;
7169;SDS011;3626;42.656;23.312;2022-09-14T00:30:51;13.55;;;9.80;;
7169;SDS011;3626;42.656;23.312;2022-09-14T00:30:57;13.60;;;9.57;;
7169;SDS011;3626;42.656;23.312;2022-09-14T00:31:03;13.38;;;9.50;;
7169;SDS011;3626;42.656;23.312;2022-09-14T00:31:10;13.08;;;9.34;;
7169;SDS011;3626;42.656;23.312;2022-09-14T00:31:17;12.90;;;8.98;;
7169;SDS011;3626;42.656;23.312;2022-09-14T00:31:24;12.50;;;8.57;;
7169;SDS011;3626;42.656;23.312;2022-09-14T00:31:30;12.27;;;8.35;;
7169;SDS011;3626;42.656;23.312;2022-09-14T00:31:38;12.42;;;8.48;;
7169;SDS011;3626;42.656;23.312;2022-09-14T00:31:44;12.38;;;8.44;;
7169;SDS011;3626;42.656;23.312;2022-09-14T00:31:50;11.73;;;8.20;;
7169;SDS011;3626;42.656;23.312;2022-09-14T00:31:56;11.40;;;8.20;;
7169;SDS011;3626;42.656;23.312;2022-09-14T00:32:03;11.37;;;8.10;;
7169;SDS011;3626;42.656;23.312;2022-09-14T00:32:10;11.05;;;7.97;;
7169;SDS011;3626;42.656;23.312;2022-09-14T00:32:16;10.42;;;7.86;;
7169;SDS011;3626;42.656;23.312;2022-09-14T00:32:22;10.00;;;7.82;;
7169;SDS011;3626;42.656;23.312;2022-09-14T00:32:28;10.18;;;8.00;;
7169;SDS011;3626;42.656;23.312;2022-09-14T00:32:34;10.15;;;7.97;;
7169;SDS011;3626;42.656;23.312;2022-09-14T00:32:39;10.02;;;7.88;;
7169;SDS011;3626;42.656;23.312;2022-09-14T00:32:45;9.77;;;7.80;;
7169;SDS011;3626;42.656;23.312;2022-09-14T00:32:51;10.70;;;7.85;;
7169;SDS011;3626;42.656;23.312;2022-09-14T00:32:57;10.93;;;7.80;;
7169;SDS011;3626;42.656;23.312;2022-09-14T00:33:03;11.20;;;7.97;;
7169;SDS011;3626;42.656;23.312;2022-09-14T00:33:09;11.25;;;7.82;;
7169;SDS011;3626;42.656;23.312;2022-09-14T00:33:14;11.48;;;7.85;;
7169;SDS011;3626;42.656;23.312;2022-09-14T00:33:20;11.60;;;7.87;;
7169;SDS011;3626;42.656;23.312;2022-09-14T00:33:26;11.80;;;7.95;;
7169;SDS011;3626;42.656;23.312;2022-09-14T00:33:31;11.75;;;7.90;;
7169;SDS011;3626;42.656;23.312;2022-09-14T00:33:39;11.57;;;7.90;;
7169;SDS011;3626;42.656;23.312;2022-09-14T00:33:47;11.51;;;7.90;;
7169;SDS011;3626;42.656;23.312;2022-09-14T00:33:54;10.35;;;7.87;;
7169;SDS011;3626;42.656;23.312;2022-09-14T00:34:00;10.27;;;7.87;;
7169;SDS011;3626;42.656;23.312;2022-09-14T00:34:07;10.00;;;7.90;;
7169;SDS011;3626;42.656;23.312;2022-09-14T00:34:15;9.87;;;7.97;;
7169;SDS011;3626;42.656;23.312;2022-09-14T00:34:21;9.85;;;7.85;;
7169;SDS011;3626;42.656;23.312;2022-09-14T00:34:27;9.53;;;7.80;;
7169;SDS011;3626;42.656;23.312;2022-09-14T00:34:33;10.02;;;8.00;;
7169;SDS011;3626;42.656;23.312;2022-09-14T00:34:39;10.25;;;8.00;;
7169;SDS011;3626;42.656;23.312;2022-09-14T00:34:44;10.73;;;8.05;;
7169;SDS011;3626;42.656;23.312;2022-09-14T00:34:50;10.50;;;7.90;;
7169;SDS011;3626;42.656;23.312;2022-09-14T00:34:56;10.50;;;7.80;;
7169;SDS011;3626;42.656;23.312;2022-09-14T00:35:02;10.10;;;7.45;;
7169;SDS011;3626;42.656;23.312;2022-09-14T00:35:09;10.18;;;7.44;;
7169;SDS011;3626;42.656;23.312;2022-09-14T00:35:15;9.80;;;7.30;;
7169;SDS011;3626;42.656;23.312;2022-09-14T00:35:21;9.77;;;7.43;;
7169;SDS011;3626;42.656;23.312;2022-09-14T00:35:27;10.60;;;7.68;;
7169;SDS011;3626;42.656;23.312;2022-09-14T00:35:33;10.45;;;7.65;;
7169;SDS011;3626;42.656;23.312;2022-09-14T00:35:39;10.10;;;7.70;;
7169;SDS011;3626;42.656;23.312;2022-09-14T00:35:45;9.50;;;7.53;;
7169;SDS011;3626;42.656;23.312;2022-09-14T00:35:51;9.65;;;7.70;;
7169;SDS011;3626;42.656;23.312;2022-09-14T00:36:02;9.82;;;7.93;;
7169;SDS011;3626;42.656;23.312;2022-09-14T00:36:10;10.70;;;8.18;;
7169;SDS011;3626;42.656;23.312;2022-09-14T00:36:17;12.12;;;8.22;;
7169;SDS011;3626;42.656;23.312;2022-09-14T00:36:25;11.77;;;7.93;;
7169;SDS011;3626;42.656;23.312;2022-09-14T00:36:33;11.07;;;7.77;;
7169;SDS011;3626;42.656;23.312;2022-09-14T00:36:44;12.06;;;7.69;;
7169;SDS011;3626;42.656;23.312;2022-09-14T00:36:52;12.35;;;7.75;;
7169;SDS011;3626;42.656;23.312;2022-09-14T00:36:58;12.20;;;7.57;;
7169;SDS011;3626;42.656;23.312;2022-09-14T00:37:03;11.88;;;7.50;;
7169;SDS011;3626;42.656;23.312;2022-09-14T00:37:10;10.52;;;7.22;;
7169;SDS011;3626;42.656;23.312;2022-09-14T00:37:16;10.07;;;7.20;;
7169;SDS011;3626;42.656;23.312;2022-09-14T00:37:21;10.35;;;7.28;;
7169;SDS011;3626;42.656;23.312;2022-09-14T00:37:27;10.60;;;7.30;;
7169;SDS011;3626;42.656;23.312;2022-09-14T00:37:33;10.50;;;7.30;;
7169;SDS011;3626;42.656;23.312;2022-09-14T00:37:38;9.55;;;7.15;;
7169;SDS011;3626;42.656;23.312;2022-09-14T00:37:47;9.30;;;6.90;;
7169;SDS011;3626;42.656;23.312;2022-09-14T00:37:55;9.25;;;6.80;;
7169;SDS011;3626;42.656;23.312;2022-09-14T00:38:00;9.10;;;6.78;;
7169;SDS011;3626;42.656;23.312;2022-09-14T00:38:06;9.20;;;6.80;;
7169;SDS011;3626;42.656;23.312;2022-09-14T00:38:13;9.56;;;6.98;;
7169;SDS011;3626;42.656;23.312;2022-09-14T00:38:19;9.35;;;7.07;;
7169;SDS011;3626;42.656;23.312;2022-09-14T00:38:26;9.20;;;7.17;;
7169;SDS011;3626;42.656;23.312;2022-09-14T00:38:32;9.40;;;7.28;;
7169;SDS011;3626;42.656;23.312;2022-09-14T00:38:37;9.35;;;7.20;;
7169;SDS011;3626;42.656;23.312;2022-09-14T00:38:44;9.80;;;7.40;;
7169;SDS011;3626;42.656;23.312;2022-09-14T00:38:50;10.40;;;7.53;;
7169;SDS011;3626;42.656;23.312;2022-09-14T00:38:58;10.62;;;7.68;;
7169;SDS011;3626;42.656;23.312;2022-09-14T00:39:04;10.76;;;7.80;;
7169;SDS011;3626;42.656;23.312;2022-09-14T00:39:11;10.57;;;7.90;;
7169;SDS011;3626;42.656;23.312;2022-09-14T00:39:19;10.68;;;7.74;;